DLH236 EDDF-LIRF
Flight info
| Callsign | DLH236 |
|---|---|
| Flight time | N/A |
| Altitude | 37000 |
| Route | CINDY8S/18 CINDY Z74 LAMPU DCT NOMBO Y161 RIDAR DCT KONIN DCT BERAS DCT LIKDA DCT BAKOR DCT VESAL DCT VIC DCT KOPER DCT SUKOM DCT GAVRA DCT RITEB |
| Aircraft | A320/M-SDE3FGHIRWY/LB1 |
Departure
| Time | 2026-05-01 14:17 |
|---|---|
| Airport | Frankfurt Main Airport (EDDF) |
Arrival
| Time | N/A |
|---|---|
| Airport | Rome–Fiumicino Leonardo da Vinci International Airport (LIRF) |
| Time | Latitude | Longitude | Altitude | Speed | Heading |
|---|---|---|---|---|---|
| 2026-05-01 13:22 | 50.04402 | 8.56222 | 362 ft | 0 kts | 160° |
| 2026-05-01 13:23 | 50.04403 | 8.56222 | 362 ft | 0 kts | 159° |
| 2026-05-01 14:02 | 50.04419 | 8.56213 | 359 ft | 4 kts | 162° |
| 2026-05-01 14:03 | 50.04445 | 8.56203 | 360 ft | 4 kts | 175° |
| 2026-05-01 14:03 | 50.04470 | 8.56206 | 358 ft | 4 kts | 221° |
| 2026-05-01 14:03 | 50.04474 | 8.56206 | 358 ft | 4 kts | 250° |
| 2026-05-01 14:03 | 50.04465 | 8.56167 | 359 ft | 4 kts | 250° |
| 2026-05-01 14:04 | 50.04455 | 8.56127 | 361 ft | 4 kts | 249° |
| 2026-05-01 14:04 | 50.04453 | 8.56118 | 359 ft | 0 kts | 249° |
| 2026-05-01 14:07 | 50.04452 | 8.56112 | 363 ft | 5 kts | 249° |
| 2026-05-01 14:08 | 50.04450 | 8.56105 | 356 ft | 0 kts | 249° |
| 2026-05-01 14:08 | 50.04439 | 8.56072 | 358 ft | 5 kts | 238° |
| 2026-05-01 14:08 | 50.04415 | 8.56038 | 356 ft | 5 kts | 208° |
| 2026-05-01 14:08 | 50.04387 | 8.56036 | 356 ft | 4 kts | 167° |
| 2026-05-01 14:09 | 50.04357 | 8.56049 | 357 ft | 5 kts | 161° |
| 2026-05-01 14:09 | 50.04352 | 8.56052 | 358 ft | 0 kts | 159° |
| 2026-05-01 14:09 | 50.04326 | 8.56068 | 356 ft | 10 kts | 156° |
| 2026-05-01 14:09 | 50.04277 | 8.56172 | 356 ft | 14 kts | 131° |
| 2026-05-01 14:10 | 50.04182 | 8.56239 | 357 ft | 5 kts | 159° |
| 2026-05-01 14:10 | 50.04132 | 8.56245 | 353 ft | 9 kts | 208° |
| 2026-05-01 14:10 | 50.04095 | 8.56140 | 359 ft | 13 kts | 249° |
| 2026-05-01 14:10 | 50.04063 | 8.56009 | 355 ft | 13 kts | 249° |
| 2026-05-01 14:11 | 50.04030 | 8.55872 | 358 ft | 14 kts | 250° |
| 2026-05-01 14:11 | 50.03961 | 8.55582 | 356 ft | 15 kts | 249° |
| 2026-05-01 14:11 | 50.03925 | 8.55436 | 352 ft | 14 kts | 249° |
| 2026-05-01 14:12 | 50.03891 | 8.55293 | 358 ft | 14 kts | 250° |
| 2026-05-01 14:12 | 50.03857 | 8.55147 | 351 ft | 14 kts | 249° |
| 2026-05-01 14:12 | 50.03821 | 8.54998 | 353 ft | 15 kts | 249° |
| 2026-05-01 14:12 | 50.03783 | 8.54845 | 349 ft | 16 kts | 249° |
| 2026-05-01 14:13 | 50.03745 | 8.54683 | 349 ft | 16 kts | 250° |
| 2026-05-01 14:13 | 50.03705 | 8.54509 | 346 ft | 18 kts | 250° |
| 2026-05-01 14:13 | 50.03661 | 8.54325 | 345 ft | 18 kts | 249° |
| 2026-05-01 14:13 | 50.03618 | 8.54144 | 348 ft | 18 kts | 249° |
| 2026-05-01 14:14 | 50.03574 | 8.53966 | 337 ft | 18 kts | 249° |
| 2026-05-01 14:14 | 50.03529 | 8.53780 | 338 ft | 18 kts | 250° |
| 2026-05-01 14:14 | 50.03486 | 8.53598 | 337 ft | 18 kts | 250° |
| 2026-05-01 14:14 | 50.03442 | 8.53410 | 337 ft | 18 kts | 250° |
| 2026-05-01 14:15 | 50.03400 | 8.53226 | 335 ft | 18 kts | 250° |
| 2026-05-01 14:15 | 50.03352 | 8.53044 | 335 ft | 18 kts | 249° |
| 2026-05-01 14:15 | 50.03308 | 8.52852 | 335 ft | 19 kts | 249° |
| 2026-05-01 14:15 | 50.03259 | 8.52673 | 332 ft | 17 kts | 234° |
| 2026-05-01 14:16 | 50.03161 | 8.52595 | 335 ft | 5 kts | 178° |
| 2026-05-01 14:16 | 50.03152 | 8.52596 | 333 ft | 16 kts | 178° |
| 2026-05-01 14:16 | 50.02691 | 8.52600 | 334 ft | 110 kts | 185° |
| 2026-05-01 14:16 | 50.01684 | 8.52631 | 333 ft | 176 kts | 181° |
| 2026-05-01 14:17 | 50.00430 | 8.52562 | 1173 ft | 175 kts | 180° |
| 2026-05-01 14:17 | 49.99194 | 8.52542 | 2100 ft | 184 kts | 175° |
| 2026-05-01 14:17 | 49.97847 | 8.52603 | 2527 ft | 204 kts | 169° |
| 2026-05-01 14:17 | 49.96522 | 8.53519 | 2997 ft | 216 kts | 137° |
| 2026-05-01 14:18 | 49.95635 | 8.55405 | 3698 ft | 221 kts | 120° |
| 2026-05-01 14:18 | 49.94883 | 8.57485 | 3919 ft | 221 kts | 120° |
| 2026-05-01 14:18 | 49.94207 | 8.59623 | 3974 ft | 221 kts | 108° |
| 2026-05-01 14:18 | 49.94036 | 8.61064 | 3978 ft | 237 kts | 96° |
| 2026-05-01 14:19 | 49.93917 | 8.64605 | 3990 ft | 253 kts | 95° |
| 2026-05-01 14:19 | 49.93663 | 8.67291 | 3979 ft | 250 kts | 108° |
| 2026-05-01 14:19 | 49.92924 | 8.69736 | 3974 ft | 252 kts | 124° |
| 2026-05-01 14:19 | 49.91757 | 8.71733 | 3995 ft | 253 kts | 141° |
| 2026-05-01 14:20 | 49.90270 | 8.73351 | 4748 ft | 263 kts | 145° |
| 2026-05-01 14:20 | 49.87748 | 8.77299 | 7372 ft | 266 kts | 121° |
| 2026-05-01 14:20 | 49.86852 | 8.79838 | 8572 ft | 270 kts | 120° |
| 2026-05-01 14:21 | 49.85936 | 8.82409 | 9751 ft | 275 kts | 120° |
| 2026-05-01 14:21 | 49.84993 | 8.85031 | 10864 ft | 281 kts | 120° |
| 2026-05-01 14:21 | 49.84024 | 8.87704 | 11432 ft | 304 kts | 120° |
| 2026-05-01 14:22 | 49.81853 | 8.93669 | 13111 ft | 326 kts | 119° |
| 2026-05-01 14:22 | 49.80747 | 8.96712 | 14099 ft | 330 kts | 119° |
| 2026-05-01 14:22 | 49.79599 | 8.99864 | 14991 ft | 335 kts | 119° |
| 2026-05-01 14:22 | 49.78425 | 9.03076 | 15874 ft | 340 kts | 119° |
| 2026-05-01 14:23 | 49.77397 | 9.05886 | 16664 ft | 344 kts | 119° |
| 2026-05-01 14:23 | 49.76297 | 9.09247 | 17556 ft | 348 kts | 111° |
| 2026-05-01 14:23 | 49.75602 | 9.12873 | 18396 ft | 354 kts | 104° |
| 2026-05-01 14:23 | 49.74922 | 9.16554 | 19144 ft | 358 kts | 111° |
| 2026-05-01 14:24 | 49.73798 | 9.20006 | 19909 ft | 362 kts | 122° |
| 2026-05-01 14:24 | 49.72208 | 9.23161 | 20671 ft | 368 kts | 130° |
| 2026-05-01 14:24 | 49.70516 | 9.26136 | 21412 ft | 373 kts | 130° |
| 2026-05-01 14:24 | 49.68803 | 9.29157 | 22151 ft | 378 kts | 130° |
| 2026-05-01 14:25 | 49.67056 | 9.32240 | 22862 ft | 383 kts | 130° |
| 2026-05-01 14:25 | 49.65290 | 9.35353 | 23591 ft | 388 kts | 129° |
| 2026-05-01 14:25 | 49.63497 | 9.38517 | 24231 ft | 393 kts | 130° |
| 2026-05-01 14:25 | 49.61521 | 9.41460 | 24801 ft | 399 kts | 140° |
| 2026-05-01 14:26 | 49.59210 | 9.43868 | 25367 ft | 405 kts | 148° |
| 2026-05-01 14:26 | 49.54251 | 9.48390 | 26493 ft | 413 kts | 147° |
| 2026-05-01 14:26 | 49.51734 | 9.50696 | 27039 ft | 417 kts | 148° |
| 2026-05-01 14:27 | 49.49074 | 9.53130 | 27585 ft | 421 kts | 148° |
| 2026-05-01 14:27 | 49.46675 | 9.55312 | 28066 ft | 425 kts | 148° |
| 2026-05-01 14:27 | 49.44041 | 9.57704 | 28580 ft | 429 kts | 148° |
| 2026-05-01 14:28 | 49.38865 | 9.62398 | 29541 ft | 436 kts | 148° |
| 2026-05-01 14:28 | 49.36133 | 9.64878 | 30026 ft | 440 kts | 147° |
| 2026-05-01 14:28 | 49.33720 | 9.67496 | 30441 ft | 442 kts | 139° |
| 2026-05-01 14:28 | 49.31492 | 9.70681 | 30806 ft | 444 kts | 133° |
| 2026-05-01 14:29 | 49.30020 | 9.72947 | 31046 ft | 446 kts | 133° |
| 2026-05-01 14:29 | 49.27035 | 9.77501 | 31505 ft | 451 kts | 134° |
| 2026-05-01 14:30 | 49.20987 | 9.86662 | 32418 ft | 458 kts | 134° |
| 2026-05-01 14:30 | 49.18716 | 9.90104 | 32876 ft | 458 kts | 134° |
| 2026-05-01 14:30 | 49.16438 | 9.93560 | 33356 ft | 457 kts | 133° |
| 2026-05-01 14:31 | 49.11761 | 10.00650 | 34327 ft | 456 kts | 134° |
| 2026-05-01 14:31 | 49.09518 | 10.04039 | 34749 ft | 456 kts | 134° |
| 2026-05-01 14:31 | 49.07333 | 10.07333 | 35162 ft | 455 kts | 134° |
| 2026-05-01 14:31 | 49.05109 | 10.10657 | 35558 ft | 454 kts | 134° |
| 2026-05-01 14:32 | 49.02681 | 10.14164 | 35999 ft | 454 kts | 135° |
| 2026-05-01 14:32 | 49.00469 | 10.17286 | 36364 ft | 453 kts | 136° |
| 2026-05-01 14:32 | 48.98109 | 10.20568 | 36758 ft | 453 kts | 136° |
| 2026-05-01 14:32 | 48.95779 | 10.23799 | 37142 ft | 452 kts | 136° |
| 2026-05-01 14:33 | 48.93432 | 10.27067 | 37346 ft | 452 kts | 136° |
| 2026-05-01 14:33 | 48.88866 | 10.33476 | 37367 ft | 446 kts | 135° |
| 2026-05-01 14:34 | 48.84350 | 10.39853 | 37366 ft | 446 kts | 135° |
| 2026-05-01 14:34 | 48.79892 | 10.46429 | 37362 ft | 444 kts | 132° |
| 2026-05-01 14:35 | 48.75692 | 10.53260 | 37362 ft | 444 kts | 130° |
| 2026-05-01 14:35 | 48.71630 | 10.59946 | 37363 ft | 444 kts | 131° |
| 2026-05-01 14:36 | 48.67394 | 10.66758 | 37358 ft | 444 kts | 131° |
| 2026-05-01 14:36 | 48.63342 | 10.73178 | 37349 ft | 444 kts | 131° |
| 2026-05-01 14:37 | 48.58988 | 10.79593 | 37343 ft | 446 kts | 140° |
| 2026-05-01 14:37 | 48.53608 | 10.84380 | 37332 ft | 448 kts | 151° |
| 2026-05-01 14:38 | 48.48108 | 10.88666 | 37330 ft | 448 kts | 151° |
| 2026-05-01 14:38 | 48.42574 | 10.92986 | 37327 ft | 448 kts | 151° |
| 2026-05-01 14:39 | 48.37019 | 10.97305 | 37330 ft | 448 kts | 151° |
| 2026-05-01 14:39 | 48.31528 | 11.01565 | 37333 ft | 448 kts | 151° |
| 2026-05-01 14:40 | 48.25979 | 11.05859 | 37319 ft | 448 kts | 151° |
| 2026-05-01 14:40 | 48.20164 | 11.10356 | 37323 ft | 448 kts | 151° |
| 2026-05-01 14:41 | 48.14895 | 11.14415 | 37323 ft | 449 kts | 151° |
| 2026-05-01 14:41 | 48.09262 | 11.18738 | 37329 ft | 449 kts | 151° |
| 2026-05-01 14:42 | 48.03823 | 11.22912 | 37321 ft | 449 kts | 151° |
| 2026-05-01 14:42 | 47.98256 | 11.27169 | 37325 ft | 449 kts | 151° |
| 2026-05-01 14:43 | 47.92689 | 11.31408 | 37324 ft | 450 kts | 151° |
| 2026-05-01 14:43 | 47.87137 | 11.35624 | 37323 ft | 450 kts | 151° |
| 2026-05-01 14:44 | 47.81663 | 11.39882 | 37322 ft | 450 kts | 149° |
| 2026-05-01 14:44 | 47.73424 | 11.46690 | 37309 ft | 450 kts | 148° |
| 2026-05-01 14:45 | 47.65205 | 11.53416 | 37306 ft | 450 kts | 149° |
| 2026-05-01 14:46 | 47.59664 | 11.57884 | 37300 ft | 450 kts | 149° |
| 2026-05-01 14:46 | 47.51511 | 11.64441 | 37294 ft | 450 kts | 149° |
| 2026-05-01 14:47 | 47.45887 | 11.68973 | 37289 ft | 450 kts | 148° |
| 2026-05-01 14:48 | 47.37547 | 11.74918 | 37243 ft | 455 kts | 164° |
| 2026-05-01 14:48 | 47.28544 | 11.76717 | 37269 ft | 460 kts | 184° |
| 2026-05-01 14:49 | 47.22028 | 11.75844 | 37057 ft | 455 kts | 180° |
| 2026-05-01 14:49 | 47.16162 | 11.72484 | 36142 ft | 414 kts | 228° |
| 2026-05-01 14:50 | 47.13012 | 11.68944 | 38236 ft | 391 kts | 207° |
| 2026-05-01 14:50 | 47.05442 | 11.65538 | 36454 ft | 449 kts | 193° |
| 2026-05-01 14:51 | 47.03468 | 11.65076 | 36854 ft | 446 kts | 180° |
| 2026-05-01 14:51 | 46.97126 | 11.67215 | 37264 ft | 451 kts | 159° |
| 2026-05-01 14:52 | 46.87609 | 11.71753 | 37267 ft | 458 kts | 165° |
| 2026-05-01 14:53 | 46.77908 | 11.74387 | 37164 ft | 457 kts | 174° |
| 2026-05-01 14:53 | 46.74795 | 11.74476 | 37276 ft | 458 kts | 181° |
| 2026-05-01 14:53 | 46.71613 | 11.74158 | 37298 ft | 466 kts | 185° |
| 2026-05-01 14:54 | 46.66140 | 11.73336 | 37301 ft | 469 kts | 184° |
| 2026-05-01 14:54 | 46.59369 | 11.72482 | 37220 ft | 465 kts | 182° |
| 2026-05-01 14:55 | 46.53077 | 11.72220 | 37226 ft | 459 kts | 180° |
| 2026-05-01 14:55 | 46.46666 | 11.72069 | 37234 ft | 461 kts | 180° |
| 2026-05-01 14:56 | 46.40090 | 11.71830 | 37256 ft | 461 kts | 181° |
| 2026-05-01 14:56 | 46.34018 | 11.71616 | 37113 ft | 460 kts | 174° |
| 2026-05-01 14:56 | 46.30891 | 11.72262 | 36441 ft | 463 kts | 167° |
| 2026-05-01 14:57 | 46.27562 | 11.72984 | 35919 ft | 461 kts | 175° |
| 2026-05-01 14:57 | 46.21472 | 11.71261 | 35438 ft | 455 kts | 193° |
| 2026-05-01 14:57 | 46.18372 | 11.70207 | 35665 ft | 461 kts | 191° |
| 2026-05-01 14:58 | 46.16411 | 11.69602 | 35808 ft | 463 kts | 190° |
| 2026-05-01 14:58 | 46.14467 | 11.69142 | 35441 ft | 450 kts | 178° |
| 2026-05-01 14:58 | 46.10337 | 11.70070 | 30991 ft | 414 kts | 216° |
| 2026-05-01 14:58 | 46.07706 | 11.67058 | 28693 ft | 491 kts | 216° |
| 2026-05-01 14:59 | 46.04934 | 11.64424 | 30362 ft | 456 kts | 209° |
| 2026-05-01 14:59 | 46.02248 | 11.62452 | 31527 ft | 447 kts | 209° |